WetterOnline ( https://www.wetteronline.ch )

Wetter aktuell Stuttgart

Aktuelles Wetter: Schnarrenberg/Stuttgart (315m)

6-stündlich | Neueste Meldungen
Ortszeit Temperatur Wetter
So, 15.12. 19:00 7.7° C leichter Regen
So, 15.12. 13:00 13.7° C leichter Regen
So, 15.12. 7:00 12.4° C bedeckt
So, 15.12. 1:00 7.2° C bedeckt
Sa, 14.12. 19:00 8.0° C bewölkt
Sa, 14.12. 13:00 7.2° C leichter Regen
Sa, 14.12. 7:00 5.6° C Regen
Sa, 14.12. 1:00 3.8° C wolkig
Ortszeit Temperatur Wetter
So, 15.12. 19:00 7.7° C leichter Regen
So, 15.12. 18:50 7.7° C leichter Regen
So, 15.12. 18:40 7.6° C Sprühregen
So, 15.12. 18:30 7.7° C leichter Regen
So, 15.12. 18:20 7.7° C leichter Regen
So, 15.12. 18:10 7.7° C leichter Regen
So, 15.12. 18:00 7.9° C leichter Regen
So, 15.12. 17:30 7.9° C Sprühregen
So, 15.12. 17:00 8.0° C leichter Regen
So, 15.12. 16:30 8.3° C leichter Regen
So, 15.12. 16:00 8.2° C leichter Regen
Ortszeit Relative Feuchte Sichtweite
So, 15.12. 19:00 95% -
So, 15.12. 13:00 63% >70 km
So, 15.12. 7:00 71% >70 km
So, 15.12. 1:00 81% 65 km
Sa, 14.12. 19:00 54% 65 km
Sa, 14.12. 13:00 78% 13 km
Sa, 14.12. 7:00 82% >70 km
Sa, 14.12. 1:00 83% 45 km
Ortszeit Relative Feuchte Sichtweite
So, 15.12. 19:00 95% -
So, 15.12. 18:50 95% -
So, 15.12. 18:40 95% -
So, 15.12. 18:30 94% 35 km
So, 15.12. 18:20 94% -
So, 15.12. 18:10 93% -
So, 15.12. 18:00 91% 55 km
So, 15.12. 17:30 90% 35 km
So, 15.12. 17:00 87% 35 km
So, 15.12. 16:30 85% 60 km
So, 15.12. 16:00 84% 55 km
Ortszeit Niederschlagsmenge Niederschlagsart
So, 15.12. 19:00 1 l/m2 in 12 Std. Regen
So, 15.12. 13:00 0.1 l/m2 in 6 Std. Regen
So, 15.12. 7:00 1 l/m2 in 12 Std. Regen
So, 15.12. 1:00 0.3 l/m2 in 6 Std. Regen
Sa, 14.12. 19:00 0.8 l/m2 in 12 Std. Regen
Sa, 14.12. 13:00 0.7 l/m2 in 6 Std. Regen
Sa, 14.12. 7:00 0.7 l/m2 in 12 Std. Regen
Sa, 14.12. 1:00 0.7 l/m2 in 6 Std. Regen
Ortszeit Niederschlagsmenge Niederschlagsart
So, 15.12. 19:00 0.1 l/m2 in 1 Std. Regen
So, 15.12. 18:50 keine Meldung -
So, 15.12. 18:40 keine Meldung -
So, 15.12. 18:30 0.1 l/m2 in 1 Std. -
So, 15.12. 18:20 keine Meldung -
So, 15.12. 18:10 keine Meldung -
So, 15.12. 18:00 0.2 l/m2 in 1 Std. Regen
So, 15.12. 17:30 0.2 l/m2 in 1 Std. -
So, 15.12. 17:00 0.1 l/m2 in 1 Std. Regen
So, 15.12. 16:30 0.1 l/m2 in 1 Std. -
So, 15.12. 16:00 0.4 l/m2 in 1 Std. Regen
Ortszeit Stärke Spitze Richtung
km/h Bft. km/h Grad Sektor
So, 15.12. 19:00 6 1 63 160° S
So, 15.12. 13:00 22 4 65 250° W
So, 15.12. 7:00 22 4 47 210° SW
So, 15.12. 1:00 11 2 39 170° S
Sa, 14.12. 19:00 17 3 70 200° S
Sa, 14.12. 13:00 32 5 65 270° W
Sa, 14.12. 7:00 22 4 43 220° SW
Sa, 14.12. 1:00 11 2 43 170° S
Ortszeit Stärke Spitze Richtung
km/h Bft. km/h Grad Sektor
So, 15.12. 19:00 6 1 13 160° S
So, 15.12. 18:50 6 1 - 160° S
So, 15.12. 18:40 4 1 - 140° SO
So, 15.12. 18:30 7 2 14 150° SO
So, 15.12. 18:20 7 2 - 150° SO
So, 15.12. 18:10 9 2 - 170° S
So, 15.12. 18:00 11 2 14 170° S
So, 15.12. 17:30 7 2 11 180° S
So, 15.12. 17:00 4 1 22 200° S
So, 15.12. 16:30 7 2 22 270° W
So, 15.12. 16:00 14 3 43 290° W
Ortszeit Untergrenze Bedeckung Gattung
total tief tief mittel hoch
So, 15.12. 19:00 1500 m 7/8 7/8 - - -
So, 15.12. 13:00 1800 m 3/8 3/8 - - -
So, 15.12. 7:00 3600 m 8/8 8/8 - - -
So, 15.12. 1:00 780 m 8/8 8/8 - - -
Sa, 14.12. 19:00 1500 m 7/8 6/8 - - -
Sa, 14.12. 13:00 690 m 8/8 8/8 - - -
Sa, 14.12. 7:00 1050 m 7/8 7/8 - - -
Sa, 14.12. 1:00 1440 m 8/8 2/8 - - -
Ortszeit Bedeckungsgrad in Achtel und Wolkenuntergrenze
So, 15.12. 19:00 7(1500m) 7(1800m)
So, 15.12. 18:50 7(1500m) 7(1800m)
So, 15.12. 18:40 6(1470m) 7(1500m) 7(1800m)
So, 15.12. 18:30 1(1470m) 8(1800m)
So, 15.12. 18:20 1(1470m) 8(1800m)
So, 15.12. 18:10 7(1500m) 7(2100m)
So, 15.12. 18:00 7(1500m) 8(2100m)
So, 15.12. 17:30 7(1440m)
So, 15.12. 17:00 8(1440m)
So, 15.12. 16:30 8(1350m)
So, 15.12. 16:00 8(1290m)
Ortszeit Luftdruck NN (hPa) Tendenz (hPa in 3 Std.)
So, 15.12. 19:00 1011 + 1,8
So, 15.12. 13:00 1005 + 1,6
So, 15.12. 7:00 1001 - 1,1
So, 15.12. 1:00 1006 - 0,8
Sa, 14.12. 19:00 1004 + 1,1
Sa, 14.12. 13:00 1000 + 4,6
Sa, 14.12. 7:00 990 - 1,9
Sa, 14.12. 1:00 994 + 0,9
Ortszeit Luftdruck NN (hPa) Tendenz (hPa in 3 Std.)
So, 15.12. 19:00 1011 + 1,8
So, 15.12. 18:50 1011 keine Meldung
So, 15.12. 18:40 1011 keine Meldung
So, 15.12. 18:30 1011 + 1,9
So, 15.12. 18:20 1011 keine Meldung
So, 15.12. 18:10 1011 keine Meldung
So, 15.12. 18:00 1011 + 1,9
So, 15.12. 17:30 1010 + 2,0
So, 15.12. 17:00 1010 + 2,2
So, 15.12. 16:30 1010 + 3,2
So, 15.12. 16:00 1009 + 3,6
Ortszeit Schneehöhe (cm)
So, 15.12. 19:00 0
So, 15.12. 13:00 0
So, 15.12. 7:00 0
So, 15.12. 1:00 0
Sa, 14.12. 19:00 0
Sa, 14.12. 13:00 0
Sa, 14.12. 7:00 0
Sa, 14.12. 1:00 0
Ortszeit Schneehöhe (cm)
So, 15.12. 19:00 0
So, 15.12. 18:50 0
So, 15.12. 18:40 0
So, 15.12. 18:30 0
So, 15.12. 18:20 0
So, 15.12. 18:10 0
So, 15.12. 18:00 0
So, 15.12. 17:30 0
So, 15.12. 17:00 0
So, 15.12. 16:30 0
So, 15.12. 16:00 0
Link zu dieser Seite / Seite empfehlen

Das Wetter in ...